sensor_id;sensor_type;location;lat;lon;timestamp;temperature;humidity
46706;DHT22;33519;50.712;7.124;2023-02-27T00:01:45;-1.80;99.90
46706;DHT22;33519;50.712;7.124;2023-02-27T00:04:12;-1.80;99.90
46706;DHT22;33519;50.712;7.124;2023-02-27T00:06:39;-1.90;99.90
46706;DHT22;33519;50.712;7.124;2023-02-27T00:09:05;-2.00;99.90
46706;DHT22;33519;50.712;7.124;2023-02-27T00:11:32;-1.90;99.90
46706;DHT22;33519;50.712;7.124;2023-02-27T00:13:59;-1.90;99.90
46706;DHT22;33519;50.712;7.124;2023-02-27T00:16:26;-2.00;99.90
46706;DHT22;33519;50.712;7.124;2023-02-27T00:18:52;-2.00;99.90
46706;DHT22;33519;50.712;7.124;2023-02-27T00:21:19;-2.10;99.90
46706;DHT22;33519;50.712;7.124;2023-02-27T00:23:46;-2.10;99.90
46706;DHT22;33519;50.712;7.124;2023-02-27T00:26:12;-2.00;99.90
46706;DHT22;33519;50.712;7.124;2023-02-27T00:28:39;-2.00;99.90
46706;DHT22;33519;50.712;7.124;2023-02-27T00:31:06;-2.10;99.90
46706;DHT22;33519;50.712;7.124;2023-02-27T00:33:33;-2.10;99.90
46706;DHT22;33519;50.712;7.124;2023-02-27T00:36:00;-2.00;99.90
46706;DHT22;33519;50.712;7.124;2023-02-27T00:38:27;-2.10;99.90
46706;DHT22;33519;50.712;7.124;2023-02-27T00:40:54;-2.10;99.90
46706;DHT22;33519;50.712;7.124;2023-02-27T00:43:20;-2.00;99.90
46706;DHT22;33519;50.712;7.124;2023-02-27T00:45:47;-1.90;99.90
46706;DHT22;33519;50.712;7.124;2023-02-27T00:48:14;-1.90;99.90
46706;DHT22;33519;50.712;7.124;2023-02-27T00:50:41;-1.80;99.90
46706;DHT22;33519;50.712;7.124;2023-02-27T00:53:08;-1.90;99.90
46706;DHT22;33519;50.712;7.124;2023-02-27T00:55:34;-1.90;99.90
46706;DHT22;33519;50.712;7.124;2023-02-27T00:58:01;-1.80;99.90
46706;DHT22;33519;50.712;7.124;2023-02-27T01:00:28;-1.70;99.90
46706;DHT22;33519;50.712;7.124;2023-02-27T01:02:54;-1.70;99.90
46706;DHT22;33519;50.712;7.124;2023-02-27T01:05:21;-1.80;99.90
46706;DHT22;33519;50.712;7.124;2023-02-27T01:07:48;-1.90;99.90
46706;DHT22;33519;50.712;7.124;2023-02-27T01:10:14;-2.00;99.90
46706;DHT22;33519;50.712;7.124;2023-02-27T01:12:41;-2.10;99.90
46706;DHT22;33519;50.712;7.124;2023-02-27T01:15:09;-2.20;99.90
46706;DHT22;33519;50.712;7.124;2023-02-27T01:17:35;-2.20;99.90
46706;DHT22;33519;50.712;7.124;2023-02-27T01:20:02;-2.10;99.90
46706;DHT22;33519;50.712;7.124;2023-02-27T01:22:29;-2.20;99.90
46706;DHT22;33519;50.712;7.124;2023-02-27T01:24:56;-2.20;99.90
46706;DHT22;33519;50.712;7.124;2023-02-27T01:27:22;-2.20;99.90
46706;DHT22;33519;50.712;7.124;2023-02-27T01:29:49;-2.30;99.90
46706;DHT22;33519;50.712;7.124;2023-02-27T01:32:15;-2.40;99.90
46706;DHT22;33519;50.712;7.124;2023-02-27T01:34:45;-2.40;99.90
46706;DHT22;33519;50.712;7.124;2023-02-27T01:37:12;-2.40;99.90
46706;DHT22;33519;50.712;7.124;2023-02-27T01:39:38;-2.40;99.90
46706;DHT22;33519;50.712;7.124;2023-02-27T01:42:09;-2.30;99.90
46706;DHT22;33519;50.712;7.124;2023-02-27T01:47:29;-2.40;99.90
46706;DHT22;33519;50.712;7.124;2023-02-27T01:49:56;-2.40;99.90
46706;DHT22;33519;50.712;7.124;2023-02-27T01:52:22;-2.40;99.90
46706;DHT22;33519;50.712;7.124;2023-02-27T01:54:49;-2.40;99.90
46706;DHT22;33519;50.712;7.124;2023-02-27T01:57:16;-2.30;99.90
46706;DHT22;33519;50.712;7.124;2023-02-27T01:59:43;-2.40;99.90
46706;DHT22;33519;50.712;7.124;2023-02-27T02:02:12;-2.40;99.90
46706;DHT22;33519;50.712;7.124;2023-02-27T02:04:39;-2.30;99.90
46706;DHT22;33519;50.712;7.124;2023-02-27T02:07:07;-2.20;99.90
46706;DHT22;33519;50.712;7.124;2023-02-27T02:09:41;-2.20;99.90
46706;DHT22;33519;50.712;7.124;2023-02-27T02:12:09;-2.30;99.90
46706;DHT22;33519;50.712;7.124;2023-02-27T02:14:37;-2.30;99.90
46706;DHT22;33519;50.712;7.124;2023-02-27T02:30:17;-2.20;99.90
46706;DHT22;33519;50.712;7.124;2023-02-27T02:32:58;-2.30;99.90
46706;DHT22;33519;50.712;7.124;2023-02-27T02:38:25;-2.30;99.90
46706;DHT22;33519;50.712;7.124;2023-02-27T02:43:48;-2.20;99.90
46706;DHT22;33519;50.712;7.124;2023-02-27T02:46:29;-2.10;99.90
46706;DHT22;33519;50.712;7.124;2023-02-27T02:51:31;-2.20;99.90
46706;DHT22;33519;50.712;7.124;2023-02-27T02:54:02;-2.30;99.90
46706;DHT22;33519;50.712;7.124;2023-02-27T02:58:59;-2.30;99.90
46706;DHT22;33519;50.712;7.124;2023-02-27T03:01:30;-2.20;99.90
46706;DHT22;33519;50.712;7.124;2023-02-27T03:04:06;-2.40;99.90
46706;DHT22;33519;50.712;7.124;2023-02-27T03:06:35;-2.50;99.90
46706;DHT22;33519;50.712;7.124;2023-02-27T03:09:16;-2.40;99.90
46706;DHT22;33519;50.712;7.124;2023-02-27T03:11:44;-2.40;99.90
46706;DHT22;33519;50.712;7.124;2023-02-27T03:17:14;-2.50;99.90
46706;DHT22;33519;50.712;7.124;2023-02-27T03:19:54;-2.50;99.90
46706;DHT22;33519;50.712;7.124;2023-02-27T03:22:26;-2.50;99.90
46706;DHT22;33519;50.712;7.124;2023-02-27T03:24:57;-2.40;99.90
46706;DHT22;33519;50.712;7.124;2023-02-27T03:27:24;-2.40;99.90
46706;DHT22;33519;50.712;7.124;2023-02-27T03:30:02;-2.40;99.90
46706;DHT22;33519;50.712;7.124;2023-02-27T03:34:58;-2.20;99.90
46706;DHT22;33519;50.712;7.124;2023-02-27T03:42:48;-2.20;99.90
46706;DHT22;33519;50.712;7.124;2023-02-27T03:47:47;-2.20;99.90
46706;DHT22;33519;50.712;7.124;2023-02-27T03:50:14;-2.30;99.90
46706;DHT22;33519;50.712;7.124;2023-02-27T03:52:40;-2.30;99.90
46706;DHT22;33519;50.712;7.124;2023-02-27T03:55:08;-2.30;99.90
46706;DHT22;33519;50.712;7.124;2023-02-27T03:57:36;-2.30;99.90
46706;DHT22;33519;50.712;7.124;2023-02-27T04:00:04;-2.30;99.90
46706;DHT22;33519;50.712;7.124;2023-02-27T04:02:31;-2.30;99.90
46706;DHT22;33519;50.712;7.124;2023-02-27T04:04:59;-2.40;99.90
46706;DHT22;33519;50.712;7.124;2023-02-27T04:07:28;-2.50;99.90
46706;DHT22;33519;50.712;7.124;2023-02-27T04:20:43;-2.50;99.90
46706;DHT22;33519;50.712;7.124;2023-02-27T04:23:18;-2.50;99.90
46706;DHT22;33519;50.712;7.124;2023-02-27T04:28:16;-2.30;99.90
46706;DHT22;33519;50.712;7.124;2023-02-27T04:30:57;-2.30;99.90
46706;DHT22;33519;50.712;7.124;2023-02-27T04:35:53;-2.30;99.90
46706;DHT22;33519;50.712;7.124;2023-02-27T04:38:25;-2.20;99.90
46706;DHT22;33519;50.712;7.124;2023-02-27T04:40:55;-2.30;99.90
46706;DHT22;33519;50.712;7.124;2023-02-27T04:43:23;-2.30;99.90
46706;DHT22;33519;50.712;7.124;2023-02-27T04:45:51;-2.40;99.90
46706;DHT22;33519;50.712;7.124;2023-02-27T04:48:20;-2.40;99.90
46706;DHT22;33519;50.712;7.124;2023-02-27T04:51:31;-2.50;99.90
46706;DHT22;33519;50.712;7.124;2023-02-27T04:53:50;-2.60;99.90
46706;DHT22;33519;50.712;7.124;2023-02-27T04:56:40;-2.60;99.90
46706;DHT22;33519;50.712;7.124;2023-02-27T04:59:08;-2.60;99.90
46706;DHT22;33519;50.712;7.124;2023-02-27T05:01:43;-2.60;99.90
46706;DHT22;33519;50.712;7.124;2023-02-27T05:04:13;-2.60;99.90
46706;DHT22;33519;50.712;7.124;2023-02-27T05:06:42;-2.60;99.90
46706;DHT22;33519;50.712;7.124;2023-02-27T05:14:26;-2.40;99.90
46706;DHT22;33519;50.712;7.124;2023-02-27T05:17:01;-2.40;99.90
46706;DHT22;33519;50.712;7.124;2023-02-27T05:19:29;-2.50;99.90
46706;DHT22;33519;50.712;7.124;2023-02-27T05:21:59;-2.60;99.90
46706;DHT22;33519;50.712;7.124;2023-02-27T05:24:44;-2.50;99.90
46706;DHT22;33519;50.712;7.124;2023-02-27T05:29:58;-2.50;99.90
46706;DHT22;33519;50.712;7.124;2023-02-27T05:32:36;-2.50;99.90
46706;DHT22;33519;50.712;7.124;2023-02-27T05:37:48;-2.70;99.90
46706;DHT22;33519;50.712;7.124;2023-02-27T05:40:20;-2.60;99.90
46706;DHT22;33519;50.712;7.124;2023-02-27T05:42:54;-2.50;99.90
46706;DHT22;33519;50.712;7.124;2023-02-27T05:45:24;-2.50;99.90
46706;DHT22;33519;50.712;7.124;2023-02-27T05:47:52;-2.50;99.90
46706;DHT22;33519;50.712;7.124;2023-02-27T05:50:22;-2.60;99.90
46706;DHT22;33519;50.712;7.124;2023-02-27T05:52:50;-2.50;99.90
46706;DHT22;33519;50.712;7.124;2023-02-27T05:55:22;-2.40;99.90
46706;DHT22;33519;50.712;7.124;2023-02-27T05:57:50;-2.50;99.90
46706;DHT22;33519;50.712;7.124;2023-02-27T06:00:29;-2.60;99.90
46706;DHT22;33519;50.712;7.124;2023-02-27T06:02:59;-2.60;99.90
46706;DHT22;33519;50.712;7.124;2023-02-27T06:05:26;-2.50;99.90
46706;DHT22;33519;50.712;7.124;2023-02-27T06:07:53;-2.40;99.90
46706;DHT22;33519;50.712;7.124;2023-02-27T06:10:20;-2.50;99.90
46706;DHT22;33519;50.712;7.124;2023-02-27T06:12:47;-2.40;99.90
46706;DHT22;33519;50.712;7.124;2023-02-27T06:15:13;-2.40;99.90
46706;DHT22;33519;50.712;7.124;2023-02-27T06:17:40;-2.40;99.90
46706;DHT22;33519;50.712;7.124;2023-02-27T06:20:07;-2.40;99.90
46706;DHT22;33519;50.712;7.124;2023-02-27T06:22:34;-2.30;99.90
46706;DHT22;33519;50.712;7.124;2023-02-27T06:25:00;-2.30;99.90
46706;DHT22;33519;50.712;7.124;2023-02-27T06:27:27;-2.30;99.90
46706;DHT22;33519;50.712;7.124;2023-02-27T06:29:54;-2.30;99.90
46706;DHT22;33519;50.712;7.124;2023-02-27T06:32:20;-2.40;99.90
46706;DHT22;33519;50.712;7.124;2023-02-27T06:34:49;-2.40;99.90
46706;DHT22;33519;50.712;7.124;2023-02-27T06:37:15;-2.40;99.90
46706;DHT22;33519;50.712;7.124;2023-02-27T06:39:42;-2.50;99.90
46706;DHT22;33519;50.712;7.124;2023-02-27T06:42:09;-2.40;99.90
46706;DHT22;33519;50.712;7.124;2023-02-27T06:44:35;-2.40;99.90
46706;DHT22;33519;50.712;7.124;2023-02-27T06:47:02;-2.50;99.90
46706;DHT22;33519;50.712;7.124;2023-02-27T06:49:29;-2.50;99.90
46706;DHT22;33519;50.712;7.124;2023-02-27T06:51:55;-2.40;99.90
46706;DHT22;33519;50.712;7.124;2023-02-27T06:54:22;-2.40;99.90
46706;DHT22;33519;50.712;7.124;2023-02-27T06:56:48;-2.40;99.90
46706;DHT22;33519;50.712;7.124;2023-02-27T06:59:17;-2.50;99.90
46706;DHT22;33519;50.712;7.124;2023-02-27T07:01:43;-2.50;99.90
46706;DHT22;33519;50.712;7.124;2023-02-27T07:04:12;-2.40;99.90
46706;DHT22;33519;50.712;7.124;2023-02-27T07:06:38;-2.40;99.90
46706;DHT22;33519;50.712;7.124;2023-02-27T07:09:25;-2.40;99.90
46706;DHT22;33519;50.712;7.124;2023-02-27T07:11:52;-2.40;99.90
46706;DHT22;33519;50.712;7.124;2023-02-27T07:14:18;-2.40;99.90
46706;DHT22;33519;50.712;7.124;2023-02-27T07:16:45;-2.40;99.90
46706;DHT22;33519;50.712;7.124;2023-02-27T07:19:16;-2.30;99.90
46706;DHT22;33519;50.712;7.124;2023-02-27T07:21:43;-2.20;99.90
46706;DHT22;33519;50.712;7.124;2023-02-27T07:24:10;-2.20;99.90
46706;DHT22;33519;50.712;7.124;2023-02-27T07:26:37;-2.10;99.90
46706;DHT22;33519;50.712;7.124;2023-02-27T07:29:04;-2.10;99.90
46706;DHT22;33519;50.712;7.124;2023-02-27T07:31:30;-2.10;99.90
46706;DHT22;33519;50.712;7.124;2023-02-27T07:33:57;-2.00;99.90
46706;DHT22;33519;50.712;7.124;2023-02-27T07:36:24;-2.00;99.90
46706;DHT22;33519;50.712;7.124;2023-02-27T07:38:51;-1.90;99.90
46706;DHT22;33519;50.712;7.124;2023-02-27T07:41:18;-1.90;99.90
46706;DHT22;33519;50.712;7.124;2023-02-27T07:43:55;-1.90;99.90
46706;DHT22;33519;50.712;7.124;2023-02-27T07:46:22;-1.80;99.90
46706;DHT22;33519;50.712;7.124;2023-02-27T07:48:50;-1.80;99.90
46706;DHT22;33519;50.712;7.124;2023-02-27T07:51:16;-1.70;99.90
46706;DHT22;33519;50.712;7.124;2023-02-27T07:53:43;-1.60;99.90
46706;DHT22;33519;50.712;7.124;2023-02-27T07:56:09;-1.50;99.90
46706;DHT22;33519;50.712;7.124;2023-02-27T07:58:36;-1.40;99.90
46706;DHT22;33519;50.712;7.124;2023-02-27T08:01:03;-1.40;99.90
46706;DHT22;33519;50.712;7.124;2023-02-27T08:03:29;-1.30;99.90
46706;DHT22;33519;50.712;7.124;2023-02-27T08:05:56;-1.20;99.90
46706;DHT22;33519;50.712;7.124;2023-02-27T08:08:23;-1.20;99.90
46706;DHT22;33519;50.712;7.124;2023-02-27T08:10:50;-1.10;99.90
46706;DHT22;33519;50.712;7.124;2023-02-27T08:13:16;-0.90;99.90
46706;DHT22;33519;50.712;7.124;2023-02-27T08:15:55;-0.80;99.90
46706;DHT22;33519;50.712;7.124;2023-02-27T08:18:22;-0.80;99.90
46706;DHT22;33519;50.712;7.124;2023-02-27T08:20:49;-0.70;99.90
46706;DHT22;33519;50.712;7.124;2023-02-27T08:23:15;-0.70;99.90
46706;DHT22;33519;50.712;7.124;2023-02-27T08:25:42;-0.60;99.90
46706;DHT22;33519;50.712;7.124;2023-02-27T08:28:09;-0.40;99.90
46706;DHT22;33519;50.712;7.124;2023-02-27T08:30:36;-0.30;99.90
46706;DHT22;33519;50.712;7.124;2023-02-27T08:33:02;-0.30;99.90
46706;DHT22;33519;50.712;7.124;2023-02-27T08:35:29;-0.20;99.90
46706;DHT22;33519;50.712;7.124;2023-02-27T08:37:57;-0.20;99.90
46706;DHT22;33519;50.712;7.124;2023-02-27T08:40:23;-0.20;99.90
46706;DHT22;33519;50.712;7.124;2023-02-27T08:42:50;0.00;99.90
46706;DHT22;33519;50.712;7.124;2023-02-27T08:45:17;-0.10;99.90
46706;DHT22;33519;50.712;7.124;2023-02-27T08:47:44;0.00;99.90
46706;DHT22;33519;50.712;7.124;2023-02-27T08:50:11;0.00;99.90
46706;DHT22;33519;50.712;7.124;2023-02-27T08:52:38;0.30;99.90
46706;DHT22;33519;50.712;7.124;2023-02-27T08:55:05;0.50;99.90
46706;DHT22;33519;50.712;7.124;2023-02-27T08:57:32;0.40;99.90
46706;DHT22;33519;50.712;7.124;2023-02-27T08:59:59;0.40;99.90
46706;DHT22;33519;50.712;7.124;2023-02-27T09:02:25;0.80;99.90
46706;DHT22;33519;50.712;7.124;2023-02-27T09:04:52;1.30;99.90
46706;DHT22;33519;50.712;7.124;2023-02-27T09:07:19;1.60;99.90
46706;DHT22;33519;50.712;7.124;2023-02-27T09:09:46;3.40;99.90
46706;DHT22;33519;50.712;7.124;2023-02-27T09:12:15;4.90;99.90
46706;DHT22;33519;50.712;7.124;2023-02-27T09:14:42;6.30;97.90
46706;DHT22;33519;50.712;7.124;2023-02-27T09:17:08;7.90;92.00
46706;DHT22;33519;50.712;7.124;2023-02-27T09:19:35;8.90;86.00
46706;DHT22;33519;50.712;7.124;2023-02-27T09:22:02;8.30;83.80
46706;DHT22;33519;50.712;7.124;2023-02-27T09:24:28;9.10;83.00
46706;DHT22;33519;50.712;7.124;2023-02-27T09:26:55;10.30;79.70
46706;DHT22;33519;50.712;7.124;2023-02-27T09:29:22;10.30;75.00
46706;DHT22;33519;50.712;7.124;2023-02-27T09:31:49;9.30;76.20
46706;DHT22;33519;50.712;7.124;2023-02-27T09:34:16;10.30;76.00
46706;DHT22;33519;50.712;7.124;2023-02-27T09:36:43;10.40;73.20
46706;DHT22;33519;50.712;7.124;2023-02-27T09:39:10;10.30;70.70
46706;DHT22;33519;50.712;7.124;2023-02-27T09:44:14;9.90;70.30
46706;DHT22;33519;50.712;7.124;2023-02-27T09:46:41;9.60;71.60
46706;DHT22;33519;50.712;7.124;2023-02-27T09:49:08;9.60;70.10
46706;DHT22;33519;50.712;7.124;2023-02-27T09:51:37;9.60;68.80
46706;DHT22;33519;50.712;7.124;2023-02-27T09:54:04;8.30;72.40
46706;DHT22;33519;50.712;7.124;2023-02-27T09:56:32;8.80;70.60
46706;DHT22;33519;50.712;7.124;2023-02-27T10:04:25;8.70;72.00
46706;DHT22;33519;50.712;7.124;2023-02-27T10:19:52;10.90;65.10
46706;DHT22;33519;50.712;7.124;2023-02-27T10:22:33;9.30;68.00
46706;DHT22;33519;50.712;7.124;2023-02-27T10:25:02;9.80;69.20
46706;DHT22;33519;50.712;7.124;2023-02-27T10:27:34;11.00;68.00
46706;DHT22;33519;50.712;7.124;2023-02-27T10:32:45;12.10;64.00
46706;DHT22;33519;50.712;7.124;2023-02-27T10:35:35;13.90;62.00
46706;DHT22;33519;50.712;7.124;2023-02-27T10:38:01;14.80;57.60
46706;DHT22;33519;50.712;7.124;2023-02-27T10:40:29;14.90;58.10
46706;DHT22;33519;50.712;7.124;2023-02-27T10:42:56;14.50;56.80
46706;DHT22;33519;50.712;7.124;2023-02-27T10:45:25;12.00;57.80
46706;DHT22;33519;50.712;7.124;2023-02-27T10:47:52;12.20;61.40
46706;DHT22;33519;50.712;7.124;2023-02-27T10:50:26;12.00;61.40
46706;DHT22;33519;50.712;7.124;2023-02-27T10:52:57;11.00;62.00
46706;DHT22;33519;50.712;7.124;2023-02-27T10:55:26;11.70;62.60
46706;DHT22;33519;50.712;7.124;2023-02-27T10:57:54;11.80;61.20
46706;DHT22;33519;50.712;7.124;2023-02-27T11:00:26;12.30;61.20
46706;DHT22;33519;50.712;7.124;2023-02-27T11:02:56;12.60;60.10
46706;DHT22;33519;50.712;7.124;2023-02-27T11:05:26;13.20;59.90
46706;DHT22;33519;50.712;7.124;2023-02-27T11:07:54;12.70;59.50
46706;DHT22;33519;50.712;7.124;2023-02-27T11:10:23;11.50;60.70
46706;DHT22;33519;50.712;7.124;2023-02-27T11:13:00;12.00;61.30
46706;DHT22;33519;50.712;7.124;2023-02-27T11:15:34;12.00;61.30
46706;DHT22;33519;50.712;7.124;2023-02-27T11:18:18;12.00;62.20
46706;DHT22;33519;50.712;7.124;2023-02-27T11:20:45;11.50;63.70
46706;DHT22;33519;50.712;7.124;2023-02-27T11:23:17;11.20;62.60
46706;DHT22;33519;50.712;7.124;2023-02-27T11:25:44;9.10;66.20
46706;DHT22;33519;50.712;7.124;2023-02-27T11:28:12;10.20;65.10
46706;DHT22;33519;50.712;7.124;2023-02-27T11:30:41;10.50;65.60
46706;DHT22;33519;50.712;7.124;2023-02-27T11:33:15;10.90;66.00
46706;DHT22;33519;50.712;7.124;2023-02-27T11:35:47;10.80;63.70
46706;DHT22;33519;50.712;7.124;2023-02-27T11:38:23;11.10;64.00
46706;DHT22;33519;50.712;7.124;2023-02-27T11:40:54;11.00;65.10
46706;DHT22;33519;50.712;7.124;2023-02-27T11:43:22;10.60;66.30
46706;DHT22;33519;50.712;7.124;2023-02-27T11:45:52;10.60;65.30
46706;DHT22;33519;50.712;7.124;2023-02-27T11:48:39;9.60;65.10
46706;DHT22;33519;50.712;7.124;2023-02-27T11:56:03;10.70;65.60
46706;DHT22;33519;50.712;7.124;2023-02-27T11:58:34;11.60;69.40
46706;DHT22;33519;50.712;7.124;2023-02-27T12:01:06;11.20;66.50
46706;DHT22;33519;50.712;7.124;2023-02-27T12:03:49;11.80;66.10
46706;DHT22;33519;50.712;7.124;2023-02-27T12:06:18;11.80;65.30
46706;DHT22;33519;50.712;7.124;2023-02-27T12:08:51;12.30;62.40
46706;DHT22;33519;50.712;7.124;2023-02-27T12:13:57;10.60;62.60
46706;DHT22;33519;50.712;7.124;2023-02-27T12:16:33;11.10;68.10
46706;DHT22;33519;50.712;7.124;2023-02-27T12:21:42;11.10;64.40
46706;DHT22;33519;50.712;7.124;2023-02-27T12:24:18;11.70;62.40
46706;DHT22;33519;50.712;7.124;2023-02-27T12:26:47;11.60;62.40
46706;DHT22;33519;50.712;7.124;2023-02-27T12:29:20;11.90;61.60
46706;DHT22;33519;50.712;7.124;2023-02-27T12:31:50;12.00;61.60
46706;DHT22;33519;50.712;7.124;2023-02-27T12:37:14;11.70;60.80
46706;DHT22;33519;50.712;7.124;2023-02-27T12:39:42;12.30;61.60
46706;DHT22;33519;50.712;7.124;2023-02-27T12:54:50;14.30;58.90
46706;DHT22;33519;50.712;7.124;2023-02-27T12:57:23;12.00;57.90
46706;DHT22;33519;50.712;7.124;2023-02-27T13:15:48;11.00;60.80
46706;DHT22;33519;50.712;7.124;2023-02-27T13:21:00;9.00;63.80
46706;DHT22;33519;50.712;7.124;2023-02-27T13:23:31;8.40;65.30
46706;DHT22;33519;50.712;7.124;2023-02-27T13:25:59;8.80;67.90
46706;DHT22;33519;50.712;7.124;2023-02-27T13:28:27;9.80;66.00
46706;DHT22;33519;50.712;7.124;2023-02-27T13:31:08;10.70;60.90
46706;DHT22;33519;50.712;7.124;2023-02-27T13:36:13;10.60;62.10
46706;DHT22;33519;50.712;7.124;2023-02-27T13:38:41;11.00;61.90
46706;DHT22;33519;50.712;7.124;2023-02-27T13:43:53;9.60;61.00
46706;DHT22;33519;50.712;7.124;2023-02-27T13:49:19;8.40;64.70
46706;DHT22;33519;50.712;7.124;2023-02-27T13:51:54;8.30;66.00
46706;DHT22;33519;50.712;7.124;2023-02-27T13:54:25;8.00;66.10
46706;DHT22;33519;50.712;7.124;2023-02-27T13:59:26;7.80;65.10
46706;DHT22;33519;50.712;7.124;2023-02-27T14:04:30;8.80;63.60
46706;DHT22;33519;50.712;7.124;2023-02-27T14:07:05;9.10;63.10
46706;DHT22;33519;50.712;7.124;2023-02-27T14:09:33;9.80;62.40
46706;DHT22;33519;50.712;7.124;2023-02-27T14:12:02;10.30;60.70
46706;DHT22;33519;50.712;7.124;2023-02-27T14:17:01;10.80;60.10
46706;DHT22;33519;50.712;7.124;2023-02-27T14:24:37;10.20;59.50
46706;DHT22;33519;50.712;7.124;2023-02-27T14:27:16;11.00;59.80
46706;DHT22;33519;50.712;7.124;2023-02-27T14:29:45;11.80;59.10
46706;DHT22;33519;50.712;7.124;2023-02-27T14:32:19;12.00;56.70
46706;DHT22;33519;50.712;7.124;2023-02-27T14:34:47;11.00;57.40
46706;DHT22;33519;50.712;7.124;2023-02-27T14:37:18;10.00;59.30
46706;DHT22;33519;50.712;7.124;2023-02-27T14:39:52;9.70;61.00
46706;DHT22;33519;50.712;7.124;2023-02-27T14:42:28;9.30;62.70
46706;DHT22;33519;50.712;7.124;2023-02-27T14:44:57;9.20;61.70
46706;DHT22;33519;50.712;7.124;2023-02-27T14:47:31;8.40;62.70
46706;DHT22;33519;50.712;7.124;2023-02-27T14:49:58;8.60;63.60
46706;DHT22;33519;50.712;7.124;2023-02-27T14:52:30;8.60;63.10
46706;DHT22;33519;50.712;7.124;2023-02-27T14:57:39;8.70;62.10
46706;DHT22;33519;50.712;7.124;2023-02-27T15:00:06;8.90;59.90
46706;DHT22;33519;50.712;7.124;2023-02-27T15:02:33;9.50;60.60
46706;DHT22;33519;50.712;7.124;2023-02-27T15:07:31;10.50;58.90
46706;DHT22;33519;50.712;7.124;2023-02-27T15:09:59;9.90;59.80
46706;DHT22;33519;50.712;7.124;2023-02-27T15:12:29;9.20;60.90
46706;DHT22;33519;50.712;7.124;2023-02-27T15:14:57;9.10;61.50
46706;DHT22;33519;50.712;7.124;2023-02-27T15:17:25;9.00;61.20
46706;DHT22;33519;50.712;7.124;2023-02-27T15:19:53;8.90;62.00
46706;DHT22;33519;50.712;7.124;2023-02-27T15:22:25;9.00;62.70
46706;DHT22;33519;50.712;7.124;2023-02-27T15:25:05;9.90;60.70
46706;DHT22;33519;50.712;7.124;2023-02-27T15:27:33;10.50;59.80
46706;DHT22;33519;50.712;7.124;2023-02-27T15:30:02;10.50;58.50
46706;DHT22;33519;50.712;7.124;2023-02-27T15:32:33;10.80;59.20
46706;DHT22;33519;50.712;7.124;2023-02-27T15:35:01;10.80;58.70
46706;DHT22;33519;50.712;7.124;2023-02-27T15:37:29;10.30;58.70
46706;DHT22;33519;50.712;7.124;2023-02-27T15:39:57;9.30;60.90
46706;DHT22;33519;50.712;7.124;2023-02-27T15:42:28;8.70;60.80
46706;DHT22;33519;50.712;7.124;2023-02-27T15:44:55;8.20;62.80
46706;DHT22;33519;50.712;7.124;2023-02-27T15:47:24;8.30;63.00
46706;DHT22;33519;50.712;7.124;2023-02-27T15:49:58;8.40;63.00
46706;DHT22;33519;50.712;7.124;2023-02-27T15:52:25;8.50;62.30
46706;DHT22;33519;50.712;7.124;2023-02-27T15:54:57;8.30;62.80
46706;DHT22;33519;50.712;7.124;2023-02-27T15:57:24;8.20;63.40
46706;DHT22;33519;50.712;7.124;2023-02-27T15:59:51;8.20;63.30
46706;DHT22;33519;50.712;7.124;2023-02-27T16:04:49;8.10;64.10
46706;DHT22;33519;50.712;7.124;2023-02-27T16:07:20;8.70;62.50
46706;DHT22;33519;50.712;7.124;2023-02-27T16:09:54;8.70;62.30
46706;DHT22;33519;50.712;7.124;2023-02-27T16:12:26;8.80;62.50
46706;DHT22;33519;50.712;7.124;2023-02-27T16:15:07;8.50;63.20
46706;DHT22;33519;50.712;7.124;2023-02-27T16:17:35;7.90;63.40
46706;DHT22;33519;50.712;7.124;2023-02-27T16:20:25;7.50;64.60
46706;DHT22;33519;50.712;7.124;2023-02-27T16:23:06;7.10;65.50
46706;DHT22;33519;50.712;7.124;2023-02-27T16:25:40;6.80;66.20
46706;DHT22;33519;50.712;7.124;2023-02-27T16:28:13;6.60;67.50
46706;DHT22;33519;50.712;7.124;2023-02-27T16:30:40;6.50;67.30
46706;DHT22;33519;50.712;7.124;2023-02-27T16:33:12;6.30;67.90
46706;DHT22;33519;50.712;7.124;2023-02-27T16:35:40;6.30;68.20
46706;DHT22;33519;50.712;7.124;2023-02-27T16:38:07;6.30;68.20
46706;DHT22;33519;50.712;7.124;2023-02-27T16:40:34;6.30;68.30
46706;DHT22;33519;50.712;7.124;2023-02-27T16:43:00;6.20;68.30
46706;DHT22;33519;50.712;7.124;2023-02-27T16:45:27;6.20;68.20
46706;DHT22;33519;50.712;7.124;2023-02-27T16:47:55;6.10;68.10
46706;DHT22;33519;50.712;7.124;2023-02-27T16:50:24;6.10;68.90
46706;DHT22;33519;50.712;7.124;2023-02-27T16:52:51;6.00;69.90
46706;DHT22;33519;50.712;7.124;2023-02-27T16:55:18;6.00;70.00
46706;DHT22;33519;50.712;7.124;2023-02-27T16:57:45;6.00;70.20
46706;DHT22;33519;50.712;7.124;2023-02-27T17:00:13;5.90;70.20
46706;DHT22;33519;50.712;7.124;2023-02-27T17:02:40;5.90;70.80
46706;DHT22;33519;50.712;7.124;2023-02-27T17:05:08;5.90;71.00
46706;DHT22;33519;50.712;7.124;2023-02-27T17:07:35;5.80;71.70
46706;DHT22;33519;50.712;7.124;2023-02-27T17:10:01;5.80;72.10
46706;DHT22;33519;50.712;7.124;2023-02-27T17:12:28;5.70;72.40
46706;DHT22;33519;50.712;7.124;2023-02-27T17:14:55;5.60;72.90
46706;DHT22;33519;50.712;7.124;2023-02-27T17:17:21;5.50;72.50
46706;DHT22;33519;50.712;7.124;2023-02-27T17:19:48;5.40;72.90
46706;DHT22;33519;50.712;7.124;2023-02-27T17:22:15;5.40;73.20
46706;DHT22;33519;50.712;7.124;2023-02-27T17:24:41;5.30;74.40
46706;DHT22;33519;50.712;7.124;2023-02-27T17:27:08;5.30;74.00
46706;DHT22;33519;50.712;7.124;2023-02-27T17:29:36;5.20;74.60
46706;DHT22;33519;50.712;7.124;2023-02-27T17:32:02;5.10;73.80
46706;DHT22;33519;50.712;7.124;2023-02-27T17:34:29;5.00;74.10
46706;DHT22;33519;50.712;7.124;2023-02-27T17:36:56;4.90;73.50
46706;DHT22;33519;50.712;7.124;2023-02-27T17:39:22;4.80;74.20
46706;DHT22;33519;50.712;7.124;2023-02-27T17:41:49;4.80;74.60
46706;DHT22;33519;50.712;7.124;2023-02-27T17:44:18;4.70;75.30
46706;DHT22;33519;50.712;7.124;2023-02-27T17:46:44;4.60;76.10
46706;DHT22;33519;50.712;7.124;2023-02-27T17:49:13;4.60;76.60
46706;DHT22;33519;50.712;7.124;2023-02-27T17:51:40;4.60;76.90
46706;DHT22;33519;50.712;7.124;2023-02-27T17:54:06;4.60;77.10
46706;DHT22;33519;50.712;7.124;2023-02-27T17:56:33;4.60;77.00
46706;DHT22;33519;50.712;7.124;2023-02-27T17:59:02;4.60;77.60
46706;DHT22;33519;50.712;7.124;2023-02-27T18:01:29;4.60;77.20
46706;DHT22;33519;50.712;7.124;2023-02-27T18:03:56;4.60;77.10
46706;DHT22;33519;50.712;7.124;2023-02-27T18:06:23;4.60;76.70
46706;DHT22;33519;50.712;7.124;2023-02-27T18:08:50;4.50;76.60
46706;DHT22;33519;50.712;7.124;2023-02-27T18:11:17;4.50;76.60
46706;DHT22;33519;50.712;7.124;2023-02-27T18:13:44;4.40;76.60
46706;DHT22;33519;50.712;7.124;2023-02-27T18:16:12;4.40;76.80
46706;DHT22;33519;50.712;7.124;2023-02-27T18:18:39;4.30;76.90
46706;DHT22;33519;50.712;7.124;2023-02-27T18:21:10;4.20;77.10
46706;DHT22;33519;50.712;7.124;2023-02-27T18:23:37;4.20;77.90
46706;DHT22;33519;50.712;7.124;2023-02-27T18:26:04;4.10;77.90
46706;DHT22;33519;50.712;7.124;2023-02-27T18:28:32;4.00;78.40
46706;DHT22;33519;50.712;7.124;2023-02-27T18:30:59;4.00;78.30